sensor_id;sensor_type;location;lat;lon;timestamp;P1;durP1;ratioP1;P2;durP2;ratioP2
72408;SDS011;60402;48.082;11.628;2022-08-16T00:01:55;3.63;;;1.30;;
72408;SDS011;60402;48.082;11.628;2022-08-16T00:04:21;2.67;;;1.23;;
72408;SDS011;60402;48.082;11.628;2022-08-16T00:06:46;3.50;;;1.55;;
72408;SDS011;60402;48.082;11.628;2022-08-16T00:09:12;3.53;;;1.45;;
72408;SDS011;60402;48.082;11.628;2022-08-16T00:11:38;3.13;;;1.33;;
72408;SDS011;60402;48.082;11.628;2022-08-16T00:14:07;2.92;;;1.30;;
72408;SDS011;60402;48.082;11.628;2022-08-16T00:16:35;3.42;;;1.42;;
72408;SDS011;60402;48.082;11.628;2022-08-16T00:19:00;3.33;;;1.25;;
72408;SDS011;60402;48.082;11.628;2022-08-16T00:21:26;3.08;;;1.27;;
72408;SDS011;60402;48.082;11.628;2022-08-16T00:23:51;2.55;;;1.30;;
72408;SDS011;60402;48.082;11.628;2022-08-16T00:26:17;3.38;;;1.55;;
72408;SDS011;60402;48.082;11.628;2022-08-16T00:28:42;3.22;;;1.27;;
72408;SDS011;60402;48.082;11.628;2022-08-16T00:31:07;2.88;;;1.38;;
72408;SDS011;60402;48.082;11.628;2022-08-16T00:33:33;2.65;;;1.42;;
72408;SDS011;60402;48.082;11.628;2022-08-16T00:35:58;3.03;;;1.40;;
72408;SDS011;60402;48.082;11.628;2022-08-16T00:38:23;2.30;;;1.10;;
72408;SDS011;60402;48.082;11.628;2022-08-16T00:40:50;3.95;;;1.38;;
72408;SDS011;60402;48.082;11.628;2022-08-16T00:43:19;4.22;;;1.40;;
72408;SDS011;60402;48.082;11.628;2022-08-16T00:48:57;2.05;;;1.10;;
72408;SDS011;60402;48.082;11.628;2022-08-16T00:51:23;2.72;;;1.33;;
72408;SDS011;60402;48.082;11.628;2022-08-16T00:53:50;3.70;;;1.40;;
72408;SDS011;60402;48.082;11.628;2022-08-16T00:56:18;2.10;;;1.02;;
72408;SDS011;60402;48.082;11.628;2022-08-16T00:58:47;2.45;;;1.33;;
72408;SDS011;60402;48.082;11.628;2022-08-16T01:01:13;3.30;;;1.40;;
72408;SDS011;60402;48.082;11.628;2022-08-16T01:03:41;2.63;;;1.38;;
72408;SDS011;60402;48.082;11.628;2022-08-16T01:06:08;3.05;;;1.45;;
72408;SDS011;60402;48.082;11.628;2022-08-16T01:08:35;3.28;;;1.40;;
72408;SDS011;60402;48.082;11.628;2022-08-16T01:11:02;3.40;;;1.60;;
72408;SDS011;60402;48.082;11.628;2022-08-16T01:13:30;3.33;;;1.40;;
72408;SDS011;60402;48.082;11.628;2022-08-16T01:18:26;3.47;;;1.50;;
72408;SDS011;60402;48.082;11.628;2022-08-16T01:21:01;2.38;;;1.30;;
72408;SDS011;60402;48.082;11.628;2022-08-16T01:23:51;3.00;;;1.30;;
72408;SDS011;60402;48.082;11.628;2022-08-16T01:26:24;2.83;;;1.50;;
72408;SDS011;60402;48.082;11.628;2022-08-16T01:28:55;3.15;;;1.77;;
72408;SDS011;60402;48.082;11.628;2022-08-16T01:31:22;2.50;;;1.50;;
72408;SDS011;60402;48.082;11.628;2022-08-16T01:33:49;3.22;;;1.38;;
72408;SDS011;60402;48.082;11.628;2022-08-16T01:36:14;3.97;;;1.70;;
72408;SDS011;60402;48.082;11.628;2022-08-16T01:38:41;4.35;;;1.60;;
72408;SDS011;60402;48.082;11.628;2022-08-16T01:43:37;3.95;;;1.50;;
72408;SDS011;60402;48.082;11.628;2022-08-16T01:46:05;3.20;;;1.33;;
72408;SDS011;60402;48.082;11.628;2022-08-16T01:48:47;3.92;;;1.48;;
72408;SDS011;60402;48.082;11.628;2022-08-16T01:51:17;2.70;;;1.30;;
72408;SDS011;60402;48.082;11.628;2022-08-16T01:53:45;3.10;;;1.42;;
72408;SDS011;60402;48.082;11.628;2022-08-16T01:56:10;2.45;;;1.27;;
72408;SDS011;60402;48.082;11.628;2022-08-16T01:58:36;2.92;;;1.30;;
72408;SDS011;60402;48.082;11.628;2022-08-16T02:01:01;4.22;;;1.58;;
72408;SDS011;60402;48.082;11.628;2022-08-16T02:03:27;2.67;;;1.30;;
72408;SDS011;60402;48.082;11.628;2022-08-16T02:05:52;3.42;;;1.50;;
72408;SDS011;60402;48.082;11.628;2022-08-16T02:08:18;3.53;;;1.65;;
72408;SDS011;60402;48.082;11.628;2022-08-16T02:10:43;2.58;;;1.40;;
72408;SDS011;60402;48.082;11.628;2022-08-16T02:13:08;3.40;;;1.58;;
72408;SDS011;60402;48.082;11.628;2022-08-16T02:15:34;4.28;;;1.67;;
72408;SDS011;60402;48.082;11.628;2022-08-16T02:18:02;2.95;;;1.50;;
72408;SDS011;60402;48.082;11.628;2022-08-16T02:20:29;3.47;;;1.48;;
72408;SDS011;60402;48.082;11.628;2022-08-16T02:25:22;4.07;;;1.45;;
72408;SDS011;60402;48.082;11.628;2022-08-16T02:27:48;3.00;;;1.30;;
72408;SDS011;60402;48.082;11.628;2022-08-16T02:30:15;2.35;;;1.20;;
72408;SDS011;60402;48.082;11.628;2022-08-16T02:32:48;2.28;;;1.30;;
72408;SDS011;60402;48.082;11.628;2022-08-16T02:35:13;3.50;;;1.30;;
72408;SDS011;60402;48.082;11.628;2022-08-16T02:37:39;3.28;;;1.60;;
72408;SDS011;60402;48.082;11.628;2022-08-16T02:40:05;3.58;;;1.58;;
72408;SDS011;60402;48.082;11.628;2022-08-16T02:42:31;2.78;;;1.30;;
72408;SDS011;60402;48.082;11.628;2022-08-16T02:44:57;3.15;;;1.33;;
72408;SDS011;60402;48.082;11.628;2022-08-16T02:47:22;2.67;;;1.33;;
72408;SDS011;60402;48.082;11.628;2022-08-16T02:49:48;2.90;;;1.30;;
72408;SDS011;60402;48.082;11.628;2022-08-16T02:52:13;2.58;;;1.42;;
72408;SDS011;60402;48.082;11.628;2022-08-16T02:54:39;3.17;;;1.40;;
72408;SDS011;60402;48.082;11.628;2022-08-16T02:57:04;4.50;;;1.50;;
72408;SDS011;60402;48.082;11.628;2022-08-16T02:59:30;2.70;;;1.30;;
72408;SDS011;60402;48.082;11.628;2022-08-16T03:01:55;3.08;;;1.48;;
72408;SDS011;60402;48.082;11.628;2022-08-16T03:04:21;3.92;;;1.60;;
72408;SDS011;60402;48.082;11.628;2022-08-16T03:06:47;3.85;;;1.27;;
72408;SDS011;60402;48.082;11.628;2022-08-16T03:09:13;3.25;;;1.58;;
72408;SDS011;60402;48.082;11.628;2022-08-16T03:11:38;4.20;;;1.40;;
72408;SDS011;60402;48.082;11.628;2022-08-16T03:14:03;3.10;;;1.35;;
72408;SDS011;60402;48.082;11.628;2022-08-16T03:16:30;4.10;;;1.30;;
72408;SDS011;60402;48.082;11.628;2022-08-16T03:18:56;2.38;;;1.38;;
72408;SDS011;60402;48.082;11.628;2022-08-16T03:21:21;3.15;;;1.30;;
72408;SDS011;60402;48.082;11.628;2022-08-16T03:23:47;2.83;;;1.30;;
72408;SDS011;60402;48.082;11.628;2022-08-16T03:26:13;3.03;;;1.20;;
72408;SDS011;60402;48.082;11.628;2022-08-16T03:28:39;4.57;;;1.50;;
72408;SDS011;60402;48.082;11.628;2022-08-16T03:31:05;4.35;;;1.50;;
72408;SDS011;60402;48.082;11.628;2022-08-16T03:33:31;3.95;;;1.50;;
72408;SDS011;60402;48.082;11.628;2022-08-16T03:35:57;4.55;;;1.90;;
72408;SDS011;60402;48.082;11.628;2022-08-16T03:38:24;4.25;;;1.65;;
72408;SDS011;60402;48.082;11.628;2022-08-16T03:40:52;3.80;;;1.52;;
72408;SDS011;60402;48.082;11.628;2022-08-16T03:43:18;2.92;;;1.50;;
72408;SDS011;60402;48.082;11.628;2022-08-16T03:45:43;2.70;;;1.60;;
72408;SDS011;60402;48.082;11.628;2022-08-16T03:48:08;2.85;;;1.58;;
72408;SDS011;60402;48.082;11.628;2022-08-16T03:50:35;2.78;;;1.40;;
72408;SDS011;60402;48.082;11.628;2022-08-16T03:53:01;4.40;;;1.45;;
72408;SDS011;60402;48.082;11.628;2022-08-16T03:55:26;3.55;;;1.58;;
72408;SDS011;60402;48.082;11.628;2022-08-16T03:57:52;2.35;;;1.20;;
72408;SDS011;60402;48.082;11.628;2022-08-16T04:00:20;3.30;;;1.50;;
72408;SDS011;60402;48.082;11.628;2022-08-16T04:02:47;4.18;;;1.80;;
72408;SDS011;60402;48.082;11.628;2022-08-16T04:05:14;4.30;;;1.73;;
72408;SDS011;60402;48.082;11.628;2022-08-16T04:07:40;4.25;;;1.40;;
72408;SDS011;60402;48.082;11.628;2022-08-16T04:10:06;3.50;;;1.58;;
72408;SDS011;60402;48.082;11.628;2022-08-16T04:12:33;4.22;;;1.67;;
72408;SDS011;60402;48.082;11.628;2022-08-16T04:15:00;3.78;;;1.60;;
72408;SDS011;60402;48.082;11.628;2022-08-16T04:17:26;3.65;;;1.65;;
72408;SDS011;60402;48.082;11.628;2022-08-16T04:19:53;3.83;;;1.95;;
72408;SDS011;60402;48.082;11.628;2022-08-16T04:22:18;4.10;;;1.85;;
72408;SDS011;60402;48.082;11.628;2022-08-16T04:24:44;4.68;;;1.90;;
72408;SDS011;60402;48.082;11.628;2022-08-16T04:27:09;4.47;;;1.80;;
72408;SDS011;60402;48.082;11.628;2022-08-16T04:29:35;5.35;;;1.75;;
72408;SDS011;60402;48.082;11.628;2022-08-16T04:32:01;5.38;;;2.03;;
72408;SDS011;60402;48.082;11.628;2022-08-16T04:34:28;3.78;;;1.60;;
72408;SDS011;60402;48.082;11.628;2022-08-16T04:36:56;4.40;;;1.73;;
72408;SDS011;60402;48.082;11.628;2022-08-16T04:39:23;3.83;;;1.65;;
72408;SDS011;60402;48.082;11.628;2022-08-16T04:41:52;4.32;;;1.73;;
72408;SDS011;60402;48.082;11.628;2022-08-16T04:44:17;3.95;;;1.70;;
72408;SDS011;60402;48.082;11.628;2022-08-16T04:46:43;4.80;;;1.75;;
72408;SDS011;60402;48.082;11.628;2022-08-16T04:49:08;5.97;;;1.70;;
72408;SDS011;60402;48.082;11.628;2022-08-16T04:51:35;3.55;;;1.55;;
72408;SDS011;60402;48.082;11.628;2022-08-16T04:54:02;3.90;;;1.75;;
72408;SDS011;60402;48.082;11.628;2022-08-16T04:56:28;3.00;;;1.50;;
72408;SDS011;60402;48.082;11.628;2022-08-16T04:58:53;4.72;;;1.52;;
72408;SDS011;60402;48.082;11.628;2022-08-16T05:01:19;4.80;;;1.48;;
72408;SDS011;60402;48.082;11.628;2022-08-16T05:03:44;5.20;;;1.80;;
72408;SDS011;60402;48.082;11.628;2022-08-16T05:06:10;5.63;;;1.70;;
72408;SDS011;60402;48.082;11.628;2022-08-16T05:08:36;3.75;;;1.60;;
72408;SDS011;60402;48.082;11.628;2022-08-16T05:11:02;2.97;;;1.70;;
72408;SDS011;60402;48.082;11.628;2022-08-16T05:15:56;4.43;;;1.70;;
72408;SDS011;60402;48.082;11.628;2022-08-16T05:18:21;4.20;;;1.70;;
72408;SDS011;60402;48.082;11.628;2022-08-16T05:20:46;4.07;;;1.95;;
72408;SDS011;60402;48.082;11.628;2022-08-16T05:23:12;3.13;;;1.60;;
72408;SDS011;60402;48.082;11.628;2022-08-16T05:25:38;3.65;;;1.70;;
72408;SDS011;60402;48.082;11.628;2022-08-16T05:28:04;4.20;;;1.52;;
72408;SDS011;60402;48.082;11.628;2022-08-16T05:30:29;3.97;;;1.80;;
72408;SDS011;60402;48.082;11.628;2022-08-16T05:32:55;5.53;;;1.83;;
72408;SDS011;60402;48.082;11.628;2022-08-16T05:35:20;4.50;;;1.77;;
72408;SDS011;60402;48.082;11.628;2022-08-16T05:37:46;4.35;;;1.92;;
72408;SDS011;60402;48.082;11.628;2022-08-16T05:40:12;3.28;;;1.42;;
72408;SDS011;60402;48.082;11.628;2022-08-16T05:42:38;5.03;;;1.83;;
72408;SDS011;60402;48.082;11.628;2022-08-16T05:45:04;3.25;;;1.45;;
72408;SDS011;60402;48.082;11.628;2022-08-16T05:47:31;4.63;;;1.92;;
72408;SDS011;60402;48.082;11.628;2022-08-16T05:49:57;4.57;;;1.75;;
72408;SDS011;60402;48.082;11.628;2022-08-16T05:52:23;4.78;;;1.63;;
72408;SDS011;60402;48.082;11.628;2022-08-16T05:54:48;3.42;;;1.67;;
72408;SDS011;60402;48.082;11.628;2022-08-16T05:57:14;4.55;;;2.13;;
72408;SDS011;60402;48.082;11.628;2022-08-16T05:59:41;4.13;;;1.70;;
72408;SDS011;60402;48.082;11.628;2022-08-16T06:02:06;4.05;;;1.90;;
72408;SDS011;60402;48.082;11.628;2022-08-16T06:04:32;4.20;;;1.83;;
72408;SDS011;60402;48.082;11.628;2022-08-16T06:06:57;4.22;;;1.50;;
72408;SDS011;60402;48.082;11.628;2022-08-16T06:09:23;4.15;;;1.42;;
72408;SDS011;60402;48.082;11.628;2022-08-16T06:11:50;5.47;;;1.67;;
72408;SDS011;60402;48.082;11.628;2022-08-16T06:14:16;4.88;;;1.80;;
72408;SDS011;60402;48.082;11.628;2022-08-16T06:16:42;4.18;;;1.88;;
72408;SDS011;60402;48.082;11.628;2022-08-16T06:19:08;3.72;;;1.40;;
72408;SDS011;60402;48.082;11.628;2022-08-16T06:21:33;3.83;;;1.60;;
72408;SDS011;60402;48.082;11.628;2022-08-16T06:23:59;3.55;;;1.60;;
72408;SDS011;60402;48.082;11.628;2022-08-16T06:26:25;3.65;;;1.70;;
72408;SDS011;60402;48.082;11.628;2022-08-16T06:28:50;4.55;;;1.80;;
72408;SDS011;60402;48.082;11.628;2022-08-16T06:31:15;4.05;;;1.75;;
72408;SDS011;60402;48.082;11.628;2022-08-16T06:33:41;3.70;;;1.58;;
72408;SDS011;60402;48.082;11.628;2022-08-16T06:36:08;2.90;;;1.30;;
72408;SDS011;60402;48.082;11.628;2022-08-16T06:38:35;4.80;;;1.70;;
72408;SDS011;60402;48.082;11.628;2022-08-16T06:41:05;3.28;;;1.55;;
72408;SDS011;60402;48.082;11.628;2022-08-16T06:43:32;3.15;;;1.35;;
72408;SDS011;60402;48.082;11.628;2022-08-16T06:45:58;3.75;;;1.70;;
72408;SDS011;60402;48.082;11.628;2022-08-16T06:48:25;3.42;;;1.50;;
72408;SDS011;60402;48.082;11.628;2022-08-16T06:50:50;4.53;;;1.60;;
72408;SDS011;60402;48.082;11.628;2022-08-16T06:53:16;3.85;;;1.63;;
72408;SDS011;60402;48.082;11.628;2022-08-16T06:55:42;4.35;;;1.80;;
72408;SDS011;60402;48.082;11.628;2022-08-16T06:58:08;3.15;;;1.45;;
72408;SDS011;60402;48.082;11.628;2022-08-16T07:00:34;3.92;;;1.60;;
72408;SDS011;60402;48.082;11.628;2022-08-16T07:02:59;3.45;;;1.50;;
72408;SDS011;60402;48.082;11.628;2022-08-16T07:05:25;3.60;;;1.50;;
72408;SDS011;60402;48.082;11.628;2022-08-16T07:07:50;2.85;;;1.40;;
72408;SDS011;60402;48.082;11.628;2022-08-16T07:10:16;2.45;;;1.20;;
72408;SDS011;60402;48.082;11.628;2022-08-16T07:12:42;3.42;;;1.23;;
72408;SDS011;60402;48.082;11.628;2022-08-16T07:15:08;2.33;;;1.25;;
72408;SDS011;60402;48.082;11.628;2022-08-16T07:17:34;5.07;;;1.35;;
72408;SDS011;60402;48.082;11.628;2022-08-16T07:20:01;2.95;;;1.40;;
72408;SDS011;60402;48.082;11.628;2022-08-16T07:24:54;2.50;;;1.23;;
72408;SDS011;60402;48.082;11.628;2022-08-16T07:27:19;2.60;;;1.30;;
72408;SDS011;60402;48.082;11.628;2022-08-16T07:29:45;2.80;;;1.20;;
72408;SDS011;60402;48.082;11.628;2022-08-16T07:32:10;2.75;;;1.40;;
72408;SDS011;60402;48.082;11.628;2022-08-16T07:34:36;2.88;;;1.20;;
72408;SDS011;60402;48.082;11.628;2022-08-16T07:37:03;2.30;;;1.00;;
72408;SDS011;60402;48.082;11.628;2022-08-16T07:39:31;1.92;;;1.00;;
72408;SDS011;60402;48.082;11.628;2022-08-16T07:41:57;2.50;;;1.10;;
72408;SDS011;60402;48.082;11.628;2022-08-16T07:44:22;3.65;;;1.50;;
72408;SDS011;60402;48.082;11.628;2022-08-16T07:46:47;4.63;;;1.38;;
72408;SDS011;60402;48.082;11.628;2022-08-16T07:49:13;2.78;;;1.10;;
72408;SDS011;60402;48.082;11.628;2022-08-16T07:51:38;3.00;;;1.20;;
72408;SDS011;60402;48.082;11.628;2022-08-16T07:54:05;2.38;;;1.33;;
72408;SDS011;60402;48.082;11.628;2022-08-16T07:56:31;2.70;;;1.40;;
72408;SDS011;60402;48.082;11.628;2022-08-16T07:58:57;2.22;;;1.30;;
72408;SDS011;60402;48.082;11.628;2022-08-16T08:01:22;2.70;;;1.48;;
72408;SDS011;60402;48.082;11.628;2022-08-16T08:03:48;4.18;;;1.40;;
72408;SDS011;60402;48.082;11.628;2022-08-16T08:06:16;2.22;;;1.20;;
72408;SDS011;60402;48.082;11.628;2022-08-16T08:08:42;3.10;;;1.30;;
72408;SDS011;60402;48.082;11.628;2022-08-16T08:11:08;2.00;;;1.10;;
72408;SDS011;60402;48.082;11.628;2022-08-16T08:13:33;3.65;;;1.20;;
72408;SDS011;60402;48.082;11.628;2022-08-16T08:15:59;2.85;;;1.30;;
72408;SDS011;60402;48.082;11.628;2022-08-16T08:18:24;2.53;;;1.40;;
72408;SDS011;60402;48.082;11.628;2022-08-16T08:20:50;3.42;;;1.30;;
72408;SDS011;60402;48.082;11.628;2022-08-16T08:23:15;2.70;;;1.40;;
72408;SDS011;60402;48.082;11.628;2022-08-16T08:25:42;2.92;;;1.35;;
72408;SDS011;60402;48.082;11.628;2022-08-16T08:28:09;3.63;;;1.40;;
72408;SDS011;60402;48.082;11.628;2022-08-16T08:30:34;4.07;;;1.50;;
72408;SDS011;60402;48.082;11.628;2022-08-16T08:33:00;2.92;;;1.40;;
72408;SDS011;60402;48.082;11.628;2022-08-16T08:35:27;2.25;;;1.30;;
72408;SDS011;60402;48.082;11.628;2022-08-16T08:37:52;3.85;;;1.60;;
72408;SDS011;60402;48.082;11.628;2022-08-16T08:40:19;3.40;;;1.58;;
72408;SDS011;60402;48.082;11.628;2022-08-16T08:42:44;2.90;;;1.33;;
72408;SDS011;60402;48.082;11.628;2022-08-16T08:45:10;3.22;;;1.60;;
72408;SDS011;60402;48.082;11.628;2022-08-16T08:47:37;3.28;;;1.60;;
72408;SDS011;60402;48.082;11.628;2022-08-16T08:50:03;2.40;;;1.40;;
72408;SDS011;60402;48.082;11.628;2022-08-16T08:52:29;3.92;;;1.70;;
72408;SDS011;60402;48.082;11.628;2022-08-16T08:54:55;2.90;;;1.50;;
72408;SDS011;60402;48.082;11.628;2022-08-16T08:57:20;3.50;;;1.48;;
72408;SDS011;60402;48.082;11.628;2022-08-16T08:59:46;4.00;;;1.60;;
72408;SDS011;60402;48.082;11.628;2022-08-16T09:02:12;4.50;;;1.90;;
72408;SDS011;60402;48.082;11.628;2022-08-16T09:04:41;4.40;;;1.90;;
72408;SDS011;60402;48.082;11.628;2022-08-16T09:07:09;4.60;;;1.80;;
72408;SDS011;60402;48.082;11.628;2022-08-16T09:09:35;4.00;;;1.77;;
72408;SDS011;60402;48.082;11.628;2022-08-16T09:12:00;3.90;;;1.80;;
72408;SDS011;60402;48.082;11.628;2022-08-16T09:14:26;4.72;;;2.03;;
72408;SDS011;60402;48.082;11.628;2022-08-16T09:16:52;3.90;;;1.92;;
72408;SDS011;60402;48.082;11.628;2022-08-16T09:19:18;5.53;;;1.90;;
72408;SDS011;60402;48.082;11.628;2022-08-16T09:21:44;3.42;;;1.77;;
72408;SDS011;60402;48.082;11.628;2022-08-16T09:24:09;3.70;;;1.70;;
72408;SDS011;60402;48.082;11.628;2022-08-16T09:26:34;3.85;;;1.98;;
72408;SDS011;60402;48.082;11.628;2022-08-16T09:29:00;4.18;;;1.98;;
72408;SDS011;60402;48.082;11.628;2022-08-16T09:31:25;3.25;;;1.77;;
72408;SDS011;60402;48.082;11.628;2022-08-16T09:33:51;3.28;;;1.70;;
72408;SDS011;60402;48.082;11.628;2022-08-16T09:36:17;3.83;;;2.10;;
72408;SDS011;60402;48.082;11.628;2022-08-16T09:38:43;4.03;;;1.75;;
72408;SDS011;60402;48.082;11.628;2022-08-16T09:41:09;3.45;;;1.92;;
72408;SDS011;60402;48.082;11.628;2022-08-16T09:43:35;6.45;;;2.00;;
72408;SDS011;60402;48.082;11.628;2022-08-16T09:46:03;5.22;;;1.88;;
72408;SDS011;60402;48.082;11.628;2022-08-16T09:48:31;3.25;;;1.83;;
72408;SDS011;60402;48.082;11.628;2022-08-16T09:50:57;3.78;;;1.98;;
72408;SDS011;60402;48.082;11.628;2022-08-16T09:53:22;5.30;;;2.22;;
72408;SDS011;60402;48.082;11.628;2022-08-16T09:55:49;3.58;;;1.90;;
72408;SDS011;60402;48.082;11.628;2022-08-16T09:58:20;5.60;;;2.10;;
72408;SDS011;60402;48.082;11.628;2022-08-16T10:00:47;4.20;;;1.95;;
72408;SDS011;60402;48.082;11.628;2022-08-16T10:03:14;3.58;;;2.17;;
72408;SDS011;60402;48.082;11.628;2022-08-16T10:05:40;3.67;;;1.90;;
72408;SDS011;60402;48.082;11.628;2022-08-16T10:08:07;2.88;;;1.75;;
72408;SDS011;60402;48.082;11.628;2022-08-16T10:10:33;3.03;;;1.92;;
72408;SDS011;60402;48.082;11.628;2022-08-16T10:12:59;3.75;;;1.73;;
72408;SDS011;60402;48.082;11.628;2022-08-16T10:15:39;4.10;;;2.13;;
72408;SDS011;60402;48.082;11.628;2022-08-16T10:18:07;3.47;;;1.88;;
72408;SDS011;60402;48.082;11.628;2022-08-16T10:20:36;2.60;;;1.63;;
72408;SDS011;60402;48.082;11.628;2022-08-16T10:23:04;4.57;;;2.10;;
72408;SDS011;60402;48.082;11.628;2022-08-16T10:25:32;5.82;;;2.10;;
72408;SDS011;60402;48.082;11.628;2022-08-16T10:27:59;5.28;;;2.50;;
72408;SDS011;60402;48.082;11.628;2022-08-16T10:30:25;4.55;;;2.03;;
72408;SDS011;60402;48.082;11.628;2022-08-16T10:32:50;4.60;;;2.13;;
72408;SDS011;60402;48.082;11.628;2022-08-16T10:35:16;4.28;;;2.00;;
72408;SDS011;60402;48.082;11.628;2022-08-16T10:37:41;4.25;;;1.90;;
72408;SDS011;60402;48.082;11.628;2022-08-16T10:40:08;7.28;;;2.28;;
72408;SDS011;60402;48.082;11.628;2022-08-16T10:42:34;3.53;;;2.03;;
72408;SDS011;60402;48.082;11.628;2022-08-16T10:45:00;4.03;;;2.03;;
72408;SDS011;60402;48.082;11.628;2022-08-16T10:47:26;3.80;;;1.75;;
72408;SDS011;60402;48.082;11.628;2022-08-16T10:49:53;4.65;;;2.05;;
72408;SDS011;60402;48.082;11.628;2022-08-16T10:52:19;3.85;;;1.92;;
72408;SDS011;60402;48.082;11.628;2022-08-16T10:54:46;4.25;;;1.88;;
72408;SDS011;60402;48.082;11.628;2022-08-16T10:57:12;4.38;;;2.08;;
72408;SDS011;60402;48.082;11.628;2022-08-16T10:59:38;3.95;;;2.20;;
72408;SDS011;60402;48.082;11.628;2022-08-16T11:02:05;4.78;;;2.10;;
72408;SDS011;60402;48.082;11.628;2022-08-16T11:04:30;4.90;;;2.00;;
72408;SDS011;60402;48.082;11.628;2022-08-16T11:06:56;4.30;;;2.20;;
72408;SDS011;60402;48.082;11.628;2022-08-16T11:09:21;3.00;;;1.70;;
72408;SDS011;60402;48.082;11.628;2022-08-16T11:11:47;3.92;;;2.22;;
72408;SDS011;60402;48.082;11.628;2022-08-16T11:14:12;5.45;;;2.03;;
72408;SDS011;60402;48.082;11.628;2022-08-16T11:16:37;3.20;;;1.73;;
72408;SDS011;60402;48.082;11.628;2022-08-16T11:19:03;4.38;;;1.80;;
72408;SDS011;60402;48.082;11.628;2022-08-16T11:21:33;4.13;;;2.10;;
72408;SDS011;60402;48.082;11.628;2022-08-16T11:24:00;4.10;;;2.10;;
72408;SDS011;60402;48.082;11.628;2022-08-16T11:26:26;3.40;;;1.70;;
72408;SDS011;60402;48.082;11.628;2022-08-16T11:28:52;3.13;;;1.90;;
72408;SDS011;60402;48.082;11.628;2022-08-16T11:31:20;5.20;;;2.05;;
72408;SDS011;60402;48.082;11.628;2022-08-16T11:33:45;3.03;;;1.60;;
72408;SDS011;60402;48.082;11.628;2022-08-16T11:36:11;4.75;;;2.38;;
72408;SDS011;60402;48.082;11.628;2022-08-16T11:38:36;2.85;;;1.73;;
72408;SDS011;60402;48.082;11.628;2022-08-16T11:41:02;3.63;;;1.98;;
72408;SDS011;60402;48.082;11.628;2022-08-16T11:43:29;5.93;;;2.08;;
72408;SDS011;60402;48.082;11.628;2022-08-16T11:45:58;3.67;;;2.03;;
72408;SDS011;60402;48.082;11.628;2022-08-16T11:48:27;3.15;;;1.67;;
72408;SDS011;60402;48.082;11.628;2022-08-16T11:50:54;5.05;;;1.92;;
72408;SDS011;60402;48.082;11.628;2022-08-16T11:53:20;3.72;;;1.88;;
72408;SDS011;60402;48.082;11.628;2022-08-16T11:55:47;3.50;;;1.98;;
72408;SDS011;60402;48.082;11.628;2022-08-16T11:58:13;3.38;;;1.90;;
72408;SDS011;60402;48.082;11.628;2022-08-16T12:00:40;4.35;;;2.03;;
72408;SDS011;60402;48.082;11.628;2022-08-16T12:03:07;4.40;;;1.98;;
72408;SDS011;60402;48.082;11.628;2022-08-16T12:05:34;5.47;;;1.83;;
72408;SDS011;60402;48.082;11.628;2022-08-16T12:08:01;3.58;;;1.90;;
72408;SDS011;60402;48.082;11.628;2022-08-16T12:10:28;3.65;;;2.15;;
72408;SDS011;60402;48.082;11.628;2022-08-16T12:12:53;3.88;;;1.95;;
72408;SDS011;60402;48.082;11.628;2022-08-16T12:15:20;3.80;;;1.73;;
72408;SDS011;60402;48.082;11.628;2022-08-16T12:17:45;3.55;;;1.85;;
72408;SDS011;60402;48.082;11.628;2022-08-16T12:20:16;5.15;;;2.00;;
72408;SDS011;60402;48.082;11.628;2022-08-16T12:22:44;4.45;;;2.10;;
72408;SDS011;60402;48.082;11.628;2022-08-16T12:25:11;4.25;;;1.70;;
72408;SDS011;60402;48.082;11.628;2022-08-16T12:27:39;4.15;;;1.90;;
72408;SDS011;60402;48.082;11.628;2022-08-16T12:30:06;4.05;;;1.85;;
72408;SDS011;60402;48.082;11.628;2022-08-16T12:32:32;4.05;;;1.80;;
72408;SDS011;60402;48.082;11.628;2022-08-16T12:34:58;4.75;;;1.80;;
72408;SDS011;60402;48.082;11.628;2022-08-16T12:37:24;3.42;;;1.85;;
72408;SDS011;60402;48.082;11.628;2022-08-16T12:39:51;2.92;;;1.65;;
72408;SDS011;60402;48.082;11.628;2022-08-16T12:42:19;2.75;;;1.67;;
72408;SDS011;60402;48.082;11.628;2022-08-16T12:44:46;4.68;;;2.20;;
72408;SDS011;60402;48.082;11.628;2022-08-16T12:47:13;4.95;;;1.92;;
72408;SDS011;60402;48.082;11.628;2022-08-16T12:49:58;5.13;;;2.63;;
72408;SDS011;60402;48.082;11.628;2022-08-16T12:52:24;3.92;;;1.90;;
72408;SDS011;60402;48.082;11.628;2022-08-16T12:54:49;3.45;;;1.77;;
72408;SDS011;60402;48.082;11.628;2022-08-16T12:57:15;5.00;;;2.13;;
72408;SDS011;60402;48.082;11.628;2022-08-16T12:59:40;3.38;;;1.90;;
72408;SDS011;60402;48.082;11.628;2022-08-16T13:02:06;3.28;;;1.98;;
72408;SDS011;60402;48.082;11.628;2022-08-16T13:04:32;3.38;;;1.80;;
72408;SDS011;60402;48.082;11.628;2022-08-16T13:07:00;3.33;;;1.77;;
72408;SDS011;60402;48.082;11.628;2022-08-16T13:09:26;3.90;;;2.40;;
72408;SDS011;60402;48.082;11.628;2022-08-16T13:12:05;4.47;;;1.92;;
72408;SDS011;60402;48.082;11.628;2022-08-16T13:14:41;3.42;;;1.77;;
72408;SDS011;60402;48.082;11.628;2022-08-16T13:17:09;4.03;;;1.98;;
72408;SDS011;60402;48.082;11.628;2022-08-16T13:19:37;3.38;;;1.80;;
72408;SDS011;60402;48.082;11.628;2022-08-16T13:22:02;3.17;;;1.70;;
72408;SDS011;60402;48.082;11.628;2022-08-16T13:24:28;4.55;;;2.00;;
72408;SDS011;60402;48.082;11.628;2022-08-16T13:26:53;3.22;;;1.75;;
72408;SDS011;60402;48.082;11.628;2022-08-16T13:29:19;6.10;;;1.92;;
72408;SDS011;60402;48.082;11.628;2022-08-16T13:31:44;3.70;;;2.00;;
72408;SDS011;60402;48.082;11.628;2022-08-16T13:34:09;3.97;;;1.90;;
72408;SDS011;60402;48.082;11.628;2022-08-16T13:36:35;4.40;;;1.75;;
72408;SDS011;60402;48.082;11.628;2022-08-16T13:39:00;4.63;;;1.80;;
72408;SDS011;60402;48.082;11.628;2022-08-16T13:41:27;2.45;;;1.60;;
72408;SDS011;60402;48.082;11.628;2022-08-16T13:43:52;4.82;;;1.77;;
72408;SDS011;60402;48.082;11.628;2022-08-16T13:46:18;3.05;;;1.67;;
72408;SDS011;60402;48.082;11.628;2022-08-16T13:48:43;5.10;;;1.83;;
72408;SDS011;60402;48.082;11.628;2022-08-16T13:51:09;4.25;;;1.80;;
72408;SDS011;60402;48.082;11.628;2022-08-16T13:53:35;4.60;;;1.65;;
72408;SDS011;60402;48.082;11.628;2022-08-16T13:56:00;3.05;;;1.80;;
72408;SDS011;60402;48.082;11.628;2022-08-16T13:58:26;4.18;;;1.80;;
72408;SDS011;60402;48.082;11.628;2022-08-16T14:00:52;3.28;;;1.85;;
72408;SDS011;60402;48.082;11.628;2022-08-16T14:03:17;4.30;;;1.90;;
72408;SDS011;60402;48.082;11.628;2022-08-16T14:05:44;3.42;;;2.00;;
72408;SDS011;60402;48.082;11.628;2022-08-16T14:08:09;3.45;;;1.75;;
72408;SDS011;60402;48.082;11.628;2022-08-16T14:10:34;3.08;;;1.77;;
72408;SDS011;60402;48.082;11.628;2022-08-16T14:13:00;3.47;;;2.10;;
72408;SDS011;60402;48.082;11.628;2022-08-16T14:15:26;3.92;;;1.75;;
72408;SDS011;60402;48.082;11.628;2022-08-16T14:17:52;4.90;;;1.73;;
72408;SDS011;60402;48.082;11.628;2022-08-16T14:20:17;3.35;;;1.70;;
72408;SDS011;60402;48.082;11.628;2022-08-16T14:22:43;3.38;;;1.75;;
72408;SDS011;60402;48.082;11.628;2022-08-16T14:25:12;4.95;;;1.88;;
72408;SDS011;60402;48.082;11.628;2022-08-16T14:27:39;5.55;;;1.83;;
72408;SDS011;60402;48.082;11.628;2022-08-16T14:30:05;2.75;;;1.45;;
72408;SDS011;60402;48.082;11.628;2022-08-16T14:32:32;3.15;;;1.50;;
72408;SDS011;60402;48.082;11.628;2022-08-16T14:34:58;3.83;;;2.03;;
72408;SDS011;60402;48.082;11.628;2022-08-16T14:37:25;5.18;;;1.98;;
72408;SDS011;60402;48.082;11.628;2022-08-16T14:39:51;4.85;;;2.00;;
72408;SDS011;60402;48.082;11.628;2022-08-16T14:42:18;3.90;;;2.10;;
72408;SDS011;60402;48.082;11.628;2022-08-16T14:44:46;4.65;;;2.10;;